Time;durP1;ratioP1;P1;durP2;ratioP2;P2;SDS_P1;SDS_P2;PMS_P1;PMS_P2;Temp;Humidity;BMP_temperature;BMP_pressure;BME280_temperature;BME280_humidity;BME280_pressure;Samples;Min_cycle;Max_cycle;Signal;HPM_P1;HPM_P2
2022/09/23 00:01:31;;;;;;;15.52;7.90;;;;;;;;;;4967763;28;20379;-71
2022/09/23 00:03:57;;;;;;;18.45;9.10;;;;;;;;;;4950122;28;20029;-70
2022/09/23 00:06:23;;;;;;;19.20;8.82;;;;;;;;;;4950144;28;20475;-70
2022/09/23 00:08:49;;;;;;;18.50;8.82;;;;;;;;;;4970047;28;20444;-70
2022/09/23 00:11:20;;;;;;;21.92;9.30;;;;;;;;;;4950486;28;20529;-70
2022/09/23 00:13:47;;;;;;;16.42;8.23;;;;;;;;;;4967711;28;20100;-70
2022/09/23 00:16:15;;;;;;;13.95;8.32;;;;;;;;;;4949823;28;20415;-71
2022/09/23 00:18:41;;;;;;;15.07;8.50;;;;;;;;;;4967975;28;20030;-71
2022/09/23 00:21:10;;;;;;;14.20;8.63;;;;;;;;;;4950092;28;20025;-70
2022/09/23 00:23:35;;;;;;;15.33;8.30;;;;;;;;;;4949685;28;20360;-70
2022/09/23 00:26:02;;;;;;;18.38;8.85;;;;;;;;;;4967572;28;20410;-70
2022/09/23 00:28:28;;;;;;;14.07;7.97;;;;;;;;;;4950418;28;20313;-70
2022/09/23 00:30:54;;;;;;;18.40;8.43;;;;;;;;;;4950060;28;20664;-70
2022/09/23 00:33:19;;;;;;;18.08;9.32;;;;;;;;;;4968383;28;20396;-71
2022/09/23 00:35:46;;;;;;;17.75;8.93;;;;;;;;;;4968484;28;20432;-71
2022/09/23 00:38:13;;;;;;;16.60;8.00;;;;;;;;;;4949538;28;20322;-71
2022/09/23 00:40:45;;;;;;;16.13;8.07;;;;;;;;;;4967426;28;20387;-70
2022/09/23 00:43:11;;;;;;;19.13;8.57;;;;;;;;;;4949592;28;20436;-70
2022/09/23 00:45:38;;;;;;;15.95;8.30;;;;;;;;;;4967384;28;20051;-71
2022/09/23 00:48:04;;;;;;;19.17;9.10;;;;;;;;;;4949771;28;20387;-71
2022/09/23 00:50:34;;;;;;;16.38;7.72;;;;;;;;;;4949598;28;20095;-70
2022/09/23 00:53:00;;;;;;;17.48;8.32;;;;;;;;;;4949388;28;20463;-73
2022/09/23 00:55:28;;;;;;;14.43;8.15;;;;;;;;;;4951209;28;20352;-71
2022/09/23 00:57:55;;;;;;;18.98;8.30;;;;;;;;;;4952689;28;20433;-70
2022/09/23 01:00:22;;;;;;;15.73;7.03;;;;;;;;;;4952751;28;20468;-70
2022/09/23 01:02:47;;;;;;;15.40;9.15;;;;;;;;;;4964551;28;20056;-70
2022/09/23 01:05:13;;;;;;;16.30;8.82;;;;;;;;;;4970955;28;20033;-70
2022/09/23 01:07:39;;;;;;;21.38;8.73;;;;;;;;;;4952806;28;20033;-70
2022/09/23 01:10:05;;;;;;;14.20;8.10;;;;;;;;;;4952695;28;20356;-72
2022/09/23 01:12:52;;;;;;;17.25;8.40;;;;;;;;;;4952537;28;20447;-71
2022/09/23 01:15:22;;;;;;;16.23;7.95;;;;;;;;;;4952836;28;20453;-70
2022/09/23 01:18:12;;;;;;;18.95;7.97;;;;;;;;;;4970211;28;20368;-71
2022/09/23 01:21:19;;;;;;;18.67;9.27;;;;;;;;;;4970421;28;20352;-71
2022/09/23 01:24:23;;;;;;;17.48;8.45;;;;;;;;;;4909716;28;20157;-70
2022/09/23 01:27:19;;;;;;;17.40;9.20;;;;;;;;;;4853221;29;20383;-71
2022/09/23 01:30:12;;;;;;;15.93;7.88;;;;;;;;;;4969050;28;20091;-71
2022/09/23 01:32:41;;;;;;;16.40;7.60;;;;;;;;;;4970312;28;20488;-71
2022/09/23 01:35:29;;;;;;;13.52;7.50;;;;;;;;;;4971984;28;20474;-71
2022/09/23 01:38:35;;;;;;;17.40;9.03;;;;;;;;;;4969816;28;20479;-70
2022/09/23 01:41:28;;;;;;;12.43;7.68;;;;;;;;;;4952366;28;20287;-70
2022/09/23 01:44:09;;;;;;;13.60;7.70;;;;;;;;;;4611787;28;10000584;-70
2022/09/23 01:46:41;;;;;;;17.23;8.43;;;;;;;;;;4969908;28;20048;-71
2022/09/23 01:49:14;;;;;;;16.90;8.65;;;;;;;;;;4935801;28;20344;-71
2022/09/23 01:51:44;;;;;;;17.80;7.90;;;;;;;;;;4969844;28;20517;-70
2022/09/23 01:54:23;;;;;;;13.27;8.00;;;;;;;;;;4951753;28;20183;-71
2022/09/23 01:57:14;;;;;;;16.92;8.27;;;;;;;;;;4951776;28;20052;-71
2022/09/23 01:59:45;;;;;;;13.93;7.63;;;;;;;;;;4951702;28;20509;-70
2022/09/23 02:02:22;;;;;;;16.17;7.72;;;;;;;;;;4951969;28;20447;-70
2022/09/23 02:04:59;;;;;;;15.32;7.15;;;;;;;;;;4970280;28;20371;-71
2022/09/23 02:07:31;;;;;;;18.48;8.25;;;;;;;;;;4950756;28;20459;-70
2022/09/23 02:10:05;;;;;;;15.90;7.43;;;;;;;;;;4968013;28;20340;-70
2022/09/23 02:12:34;;;;;;;14.55;7.18;;;;;;;;;;4951886;28;20436;-70
2022/09/23 02:15:01;;;;;;;13.65;7.00;;;;;;;;;;4951777;28;20427;-70
2022/09/23 02:17:38;;;;;;;14.32;6.80;;;;;;;;;;4951475;28;20047;-70
2022/09/23 02:20:05;;;;;;;19.92;8.20;;;;;;;;;;4952552;28;20502;-71
2022/09/23 02:23:05;;;;;;;12.93;7.13;;;;;;;;;;4951365;28;20490;-70
2022/09/23 02:25:39;;;;;;;14.25;7.50;;;;;;;;;;4969313;28;20382;-71
2022/09/23 02:28:11;;;;;;;15.70;7.25;;;;;;;;;;4969023;28;20432;-71
2022/09/23 02:30:48;;;;;;;12.90;7.22;;;;;;;;;;4967463;28;20437;-71
2022/09/23 02:33:26;;;;;;;11.93;7.20;;;;;;;;;;4968898;28;20403;-70
2022/09/23 02:36:09;;;;;;;15.87;7.20;;;;;;;;;;4951033;28;20415;-71
2022/09/23 02:38:45;;;;;;;12.80;6.50;;;;;;;;;;4951654;28;20029;-70
2022/09/23 02:41:25;;;;;;;13.65;6.97;;;;;;;;;;4951186;28;20105;-69
2022/09/23 02:44:00;;;;;;;11.73;6.55;;;;;;;;;;4951348;28;20463;-71
2022/09/23 02:46:25;;;;;;;13.85;7.70;;;;;;;;;;4950976;28;20364;-70
2022/09/23 02:48:57;;;;;;;13.65;6.18;;;;;;;;;;4951809;28;20368;-70
2022/09/23 02:51:27;;;;;;;12.10;6.72;;;;;;;;;;4950933;28;20359;-70
2022/09/23 02:53:55;;;;;;;10.85;6.15;;;;;;;;;;4951345;28;20436;-70
2022/09/23 02:56:21;;;;;;;13.95;6.90;;;;;;;;;;4950832;28;20459;-71
2022/09/23 02:58:52;;;;;;;13.80;5.63;;;;;;;;;;4951689;28;20436;-71
2022/09/23 03:01:23;;;;;;;14.23;7.63;;;;;;;;;;4950818;28;20368;-70
2022/09/23 03:04:13;;;;;;;13.40;7.03;;;;;;;;;;4967010;28;20021;-71
2022/09/23 03:06:46;;;;;;;14.40;7.20;;;;;;;;;;4969676;28;20374;-71
2022/09/23 03:09:19;;;;;;;17.15;7.63;;;;;;;;;;4970504;28;20412;-70
2022/09/23 03:11:51;;;;;;;12.02;6.82;;;;;;;;;;4968429;28;20029;-71
2022/09/23 03:14:29;;;;;;;13.30;6.60;;;;;;;;;;4950406;28;20335;-71
2022/09/23 03:17:09;;;;;;;12.52;6.60;;;;;;;;;;4968341;28;20047;-71
2022/09/23 03:19:42;;;;;;;10.85;6.43;;;;;;;;;;4968179;28;20348;-71
2022/09/23 03:22:11;;;;;;;17.77;7.60;;;;;;;;;;4968859;28;20420;-71
2022/09/23 03:24:38;;;;;;;14.13;7.55;;;;;;;;;;4950596;28;20433;-71
2022/09/23 03:27:12;;;;;;;15.05;6.72;;;;;;;;;;4950314;28;20065;-71
2022/09/23 03:29:40;;;;;;;20.58;8.00;;;;;;;;;;4951822;28;20360;-70
2022/09/23 03:32:06;;;;;;;14.15;7.18;;;;;;;;;;4950513;28;20033;-71
2022/09/23 03:34:33;;;;;;;16.38;7.45;;;;;;;;;;4968987;28;20391;-71
2022/09/23 03:37:09;;;;;;;12.40;6.28;;;;;;;;;;4950939;28;20030;-71
2022/09/23 03:39:39;;;;;;;14.52;7.47;;;;;;;;;;4950325;28;20445;-71
2022/09/23 03:42:19;;;;;;;14.75;6.70;;;;;;;;;;4950102;28;20423;-70
2022/09/23 03:44:46;;;;;;;15.27;7.70;;;;;;;;;;4950240;28;20103;-70
2022/09/23 03:47:13;;;;;;;14.07;6.88;;;;;;;;;;4950637;28;20033;-71
2022/09/23 03:49:40;;;;;;;17.38;7.68;;;;;;;;;;4966915;28;20091;-71
2022/09/23 03:52:05;;;;;;;16.75;8.45;;;;;;;;;;4950073;28;20056;-71
2022/09/23 03:54:32;;;;;;;14.80;7.35;;;;;;;;;;4967257;28;20464;-70
2022/09/23 03:56:59;;;;;;;12.93;6.82;;;;;;;;;;4967769;28;20456;-71
2022/09/23 03:59:24;;;;;;;12.85;7.38;;;;;;;;;;4949940;28;20346;-71
2022/09/23 04:01:50;;;;;;;12.75;6.80;;;;;;;;;;4950810;28;20374;-72
2022/09/23 04:04:16;;;;;;;14.52;7.65;;;;;;;;;;4967822;28;20376;-70
2022/09/23 04:06:41;;;;;;;15.02;7.00;;;;;;;;;;4949904;28;20460;-71
2022/09/23 04:09:07;;;;;;;14.50;7.65;;;;;;;;;;4967958;28;20071;-71
2022/09/23 04:11:32;;;;;;;15.75;7.25;;;;;;;;;;4949734;28;20325;-71
2022/09/23 04:13:58;;;;;;;13.52;7.50;;;;;;;;;;4950302;28;20375;-71
2022/09/23 04:16:23;;;;;;;14.57;7.70;;;;;;;;;;4967572;28;20352;-71
2022/09/23 04:18:49;;;;;;;14.02;7.53;;;;;;;;;;4967544;28;20491;-71
2022/09/23 04:21:14;;;;;;;12.30;6.82;;;;;;;;;;4969620;28;20044;-70
2022/09/23 04:23:40;;;;;;;13.68;7.38;;;;;;;;;;4949646;28;20112;-71
2022/09/23 04:26:06;;;;;;;14.57;6.75;;;;;;;;;;4949767;28;20438;-70
2022/09/23 04:28:31;;;;;;;13.65;6.57;;;;;;;;;;4967797;28;20503;-71
2022/09/23 04:30:57;;;;;;;12.65;6.93;;;;;;;;;;4968882;28;20117;-71
2022/09/23 04:33:23;;;;;;;13.68;6.95;;;;;;;;;;4953833;28;20432;-71
2022/09/23 04:35:51;;;;;;;14.00;7.45;;;;;;;;;;4971630;28;20391;-71
2022/09/23 04:38:17;;;;;;;12.70;6.73;;;;;;;;;;4969580;28;20330;-71
2022/09/23 04:40:42;;;;;;;10.60;6.88;;;;;;;;;;4970940;28;20056;-70
2022/09/23 04:43:08;;;;;;;13.82;6.97;;;;;;;;;;4971449;28;20511;-71
2022/09/23 04:45:33;;;;;;;12.63;7.00;;;;;;;;;;4971089;28;20309;-71
2022/09/23 04:47:59;;;;;;;11.30;6.47;;;;;;;;;;4953151;28;20436;-71
2022/09/23 04:50:25;;;;;;;11.73;5.95;;;;;;;;;;4970949;28;20026;-70
2022/09/23 04:52:50;;;;;;;13.55;6.80;;;;;;;;;;4971158;28;20456;-70
2022/09/23 04:55:16;;;;;;;11.57;6.85;;;;;;;;;;4971162;28;20101;-71
2022/09/23 04:57:42;;;;;;;11.60;6.75;;;;;;;;;;4971114;28;20037;-71
2022/09/23 05:00:10;;;;;;;12.90;7.00;;;;;;;;;;4970871;28;20452;-70
2022/09/23 05:02:44;;;;;;;13.73;7.45;;;;;;;;;;4971498;28;20061;-70
2022/09/23 05:05:09;;;;;;;13.18;6.68;;;;;;;;;;4953261;28;20392;-71
2022/09/23 05:07:35;;;;;;;13.32;6.97;;;;;;;;;;4953101;28;20358;-71
2022/09/23 05:10:00;;;;;;;10.77;6.45;;;;;;;;;;4970726;28;20586;-71
2022/09/23 05:12:25;;;;;;;16.67;7.32;;;;;;;;;;4952859;28;20030;-71
2022/09/23 05:14:51;;;;;;;15.23;7.13;;;;;;;;;;4972181;28;20368;-71
2022/09/23 05:17:16;;;;;;;9.85;6.68;;;;;;;;;;4970606;28;20391;-71
2022/09/23 05:19:41;;;;;;;12.75;7.05;;;;;;;;;;4970717;28;20056;-71
2022/09/23 05:22:07;;;;;;;12.50;6.47;;;;;;;;;;4970396;28;20444;-72
2022/09/23 05:24:32;;;;;;;11.02;6.43;;;;;;;;;;4971209;28;20366;-70
2022/09/23 05:26:57;;;;;;;16.67;6.90;;;;;;;;;;4971383;28;20352;-71
2022/09/23 05:29:23;;;;;;;14.32;7.30;;;;;;;;;;4971815;28;20360;-71
2022/09/23 05:31:48;;;;;;;11.88;6.57;;;;;;;;;;4970026;28;20519;-71
2022/09/23 05:34:13;;;;;;;12.30;6.30;;;;;;;;;;4970832;28;20447;-71
2022/09/23 05:36:39;;;;;;;10.05;5.85;;;;;;;;;;4969980;28;20412;-71
2022/09/23 05:39:05;;;;;;;10.48;6.30;;;;;;;;;;4971672;28;20511;-70
2022/09/23 05:41:32;;;;;;;9.38;5.70;;;;;;;;;;4952612;28;20440;-71
2022/09/23 05:43:58;;;;;;;10.75;6.45;;;;;;;;;;4952315;28;20525;-70
2022/09/23 05:46:28;;;;;;;12.32;7.30;;;;;;;;;;4952318;28;20326;-70
2022/09/23 05:48:55;;;;;;;14.77;7.53;;;;;;;;;;4952062;28;20047;-71
2022/09/23 05:51:22;;;;;;;11.57;6.03;;;;;;;;;;4969798;28;20427;-72
2022/09/23 05:53:51;;;;;;;12.02;6.85;;;;;;;;;;4952007;28;20475;-70
2022/09/23 05:56:18;;;;;;;9.35;6.18;;;;;;;;;;4952404;28;20049;-71
2022/09/23 05:58:44;;;;;;;11.70;7.80;;;;;;;;;;4969663;28;20386;-71
2022/09/23 06:01:16;;;;;;;13.15;7.38;;;;;;;;;;4952973;28;20329;-70
2022/09/23 06:03:46;;;;;;;11.10;6.40;;;;;;;;;;4951793;28;20534;-70
2022/09/23 06:06:13;;;;;;;11.57;6.57;;;;;;;;;;4935747;28;20428;-71
2022/09/23 06:08:39;;;;;;;12.48;6.85;;;;;;;;;;4969497;28;20376;-71
2022/09/23 06:11:06;;;;;;;10.73;5.93;;;;;;;;;;4969419;28;20348;-70
2022/09/23 06:13:34;;;;;;;9.95;6.72;;;;;;;;;;4969551;28;20049;-69
2022/09/23 06:16:01;;;;;;;11.32;6.07;;;;;;;;;;4969408;28;20463;-71
2022/09/23 06:18:26;;;;;;;11.35;6.10;;;;;;;;;;4969183;28;20064;-71
2022/09/23 06:20:51;;;;;;;10.90;6.50;;;;;;;;;;4951567;28;20429;-71
2022/09/23 06:23:17;;;;;;;12.63;6.65;;;;;;;;;;4969301;28;20502;-71
2022/09/23 06:25:42;;;;;;;11.75;6.85;;;;;;;;;;4970595;28;20498;-71
2022/09/23 06:28:13;;;;;;;13.70;7.07;;;;;;;;;;4951262;28;20444;-70
2022/09/23 06:30:38;;;;;;;12.13;6.43;;;;;;;;;;4969156;28;20380;-71
2022/09/23 06:33:04;;;;;;;11.75;6.32;;;;;;;;;;4969170;28;20388;-71
2022/09/23 06:35:32;;;;;;;15.85;6.65;;;;;;;;;;4951006;28;20025;-70
2022/09/23 06:37:57;;;;;;;11.75;6.53;;;;;;;;;;4968913;28;20037;-71
2022/09/23 06:40:22;;;;;;;11.02;6.63;;;;;;;;;;4951248;28;20053;-71
2022/09/23 06:42:56;;;;;;;13.35;7.78;;;;;;;;;;4970349;28;20432;-70
2022/09/23 06:45:22;;;;;;;13.05;7.15;;;;;;;;;;4951066;28;20095;-71
2022/09/23 06:47:54;;;;;;;10.82;6.20;;;;;;;;;;4968811;28;20029;-71
2022/09/23 06:50:20;;;;;;;13.02;7.13;;;;;;;;;;4969348;28;20396;-70
2022/09/23 06:52:54;;;;;;;14.57;6.20;;;;;;;;;;4968012;28;20312;-70
2022/09/23 06:55:21;;;;;;;9.93;6.03;;;;;;;;;;4968430;28;20464;-70
2022/09/23 06:57:46;;;;;;;13.93;6.57;;;;;;;;;;4966935;28;20463;-70
2022/09/23 07:00:12;;;;;;;10.50;5.97;;;;;;;;;;4970006;28;20437;-70
2022/09/23 07:02:40;;;;;;;13.45;6.82;;;;;;;;;;4950470;28;20463;-71
2022/09/23 07:05:06;;;;;;;12.63;7.13;;;;;;;;;;4967113;28;20436;-69
2022/09/23 07:07:32;;;;;;;12.45;6.90;;;;;;;;;;4968293;28;20363;-71
2022/09/23 07:09:57;;;;;;;15.75;7.82;;;;;;;;;;4970581;28;20067;-71
2022/09/23 07:12:23;;;;;;;11.43;7.20;;;;;;;;;;4968424;28;20444;-70
2022/09/23 07:14:48;;;;;;;10.85;6.57;;;;;;;;;;4968435;28;20429;-71
2022/09/23 07:17:13;;;;;;;9.50;6.40;;;;;;;;;;4968732;28;20460;-71
2022/09/23 07:19:40;;;;;;;12.32;6.72;;;;;;;;;;4968392;28;20548;-70
2022/09/23 07:22:05;;;;;;;9.73;6.20;;;;;;;;;;4968095;28;20132;-71
2022/09/23 07:24:31;;;;;;;12.18;6.53;;;;;;;;;;4968871;28;20433;-71
2022/09/23 07:26:57;;;;;;;11.43;6.53;;;;;;;;;;4967989;28;20445;-71
2022/09/23 07:29:22;;;;;;;10.98;6.60;;;;;;;;;;4966551;28;20384;-71
2022/09/23 07:31:47;;;;;;;9.23;6.15;;;;;;;;;;4968054;28;20523;-71
2022/09/23 07:34:13;;;;;;;12.88;6.75;;;;;;;;;;4967999;28;20528;-70
2022/09/23 07:36:39;;;;;;;13.20;6.60;;;;;;;;;;4968307;28;20525;-71
2022/09/23 07:39:09;;;;;;;11.93;6.82;;;;;;;;;;4967843;28;20037;-70
2022/09/23 07:41:35;;;;;;;11.15;6.38;;;;;;;;;;4950432;28;20055;-71
2022/09/23 07:44:01;;;;;;;14.65;6.45;;;;;;;;;;4968065;28;20455;-70
2022/09/23 07:46:29;;;;;;;10.18;6.47;;;;;;;;;;4950006;28;20436;-70
2022/09/23 07:48:54;;;;;;;11.15;6.00;;;;;;;;;;4950885;28;20344;-70
2022/09/23 07:51:29;;;;;;;9.80;5.55;;;;;;;;;;4950084;28;20056;-71
2022/09/23 07:53:55;;;;;;;10.93;6.18;;;;;;;;;;4967455;28;20387;-71
2022/09/23 07:56:24;;;;;;;10.95;5.47;;;;;;;;;;4949995;28;20099;-71
2022/09/23 07:58:58;;;;;;;12.50;6.35;;;;;;;;;;4967650;28;20055;-70
2022/09/23 08:01:26;;;;;;;10.75;6.07;;;;;;;;;;4967926;28;20456;-70
2022/09/23 08:03:52;;;;;;;11.32;6.25;;;;;;;;;;4967986;28;20440;-70
2022/09/23 08:06:17;;;;;;;10.27;5.70;;;;;;;;;;4971644;28;20344;-69
2022/09/23 08:08:42;;;;;;;9.52;5.57;;;;;;;;;;4937775;28;20455;-70
2022/09/23 08:11:10;;;;;;;9.48;5.82;;;;;;;;;;4972177;28;20397;-70
2022/09/23 08:13:36;;;;;;;7.13;4.90;;;;;;;;;;4972512;28;20445;-70
2022/09/23 08:16:01;;;;;;;8.10;5.75;;;;;;;;;;4971912;28;20643;-70
2022/09/23 08:18:27;;;;;;;11.57;5.63;;;;;;;;;;4971430;28;20510;-70
2022/09/23 08:20:52;;;;;;;8.13;5.15;;;;;;;;;;4954822;28;20030;-70
2022/09/23 08:23:19;;;;;;;10.52;5.38;;;;;;;;;;4953665;28;20440;-71
2022/09/23 08:25:47;;;;;;;7.55;4.65;;;;;;;;;;4953520;28;20412;-70
2022/09/23 08:28:15;;;;;;;9.35;5.07;;;;;;;;;;4971495;28;20387;-69
2022/09/23 08:30:42;;;;;;;9.48;5.45;;;;;;;;;;4953748;28;20359;-71
2022/09/23 08:33:08;;;;;;;8.95;5.25;;;;;;;;;;4953329;28;20340;-70
2022/09/23 08:35:33;;;;;;;10.05;5.30;;;;;;;;;;4953979;28;20388;-70
2022/09/23 08:37:58;;;;;;;9.65;5.40;;;;;;;;;;4971045;28;20399;-72
2022/09/23 08:40:24;;;;;;;11.55;5.20;;;;;;;;;;4972781;28;20416;-69
2022/09/23 08:42:49;;;;;;;9.05;4.85;;;;;;;;;;4973448;28;20332;-69
2022/09/23 08:45:19;;;;;;;7.93;4.85;;;;;;;;;;4971830;28;20368;-69
2022/09/23 08:47:45;;;;;;;8.05;4.90;;;;;;;;;;4954272;28;20409;-70
2022/09/23 08:50:21;;;;;;;7.47;4.45;;;;;;;;;;4970971;28;20428;-70
2022/09/23 08:52:55;;;;;;;9.43;5.15;;;;;;;;;;4953056;28;20029;-70
2022/09/23 08:55:36;;;;;;;8.73;4.68;;;;;;;;;;4952831;28;20321;-69
2022/09/23 08:58:27;;;;;;;6.80;3.92;;;;;;;;;;4952834;28;20060;-70
2022/09/23 09:01:06;;;;;;;5.20;3.90;;;;;;;;;;4970719;28;20513;-69
2022/09/23 09:03:44;;;;;;;7.07;3.65;;;;;;;;;;4953746;28;20371;-69
2022/09/23 09:06:16;;;;;;;6.47;4.05;;;;;;;;;;4970660;28;20444;-69
2022/09/23 09:08:43;;;;;;;5.80;4.07;;;;;;;;;;4953091;28;20479;-69
2022/09/23 09:11:11;;;;;;;5.00;3.25;;;;;;;;;;4953061;28;20392;-69
2022/09/23 09:13:43;;;;;;;6.38;3.78;;;;;;;;;;4970608;28;20364;-69
2022/09/23 09:16:12;;;;;;;5.57;3.38;;;;;;;;;;4952392;28;20483;-69
2022/09/23 09:18:54;;;;;;;5.20;3.60;;;;;;;;;;4970271;28;20460;-69
2022/09/23 09:21:23;;;;;;;7.57;4.07;;;;;;;;;;4970389;28;20372;-69
2022/09/23 09:23:56;;;;;;;6.43;3.60;;;;;;;;;;4952493;28;20379;-69
2022/09/23 09:26:23;;;;;;;5.07;3.13;;;;;;;;;;4952450;28;20510;-69
2022/09/23 09:29:12;;;;;;;5.40;3.42;;;;;;;;;;4952569;28;20539;-69
2022/09/23 09:31:41;;;;;;;6.90;3.35;;;;;;;;;;4969498;28;20374;-69
2022/09/23 09:34:32;;;;;;;7.90;4.40;;;;;;;;;;4952536;28;20418;-69
2022/09/23 09:37:11;;;;;;;5.35;3.63;;;;;;;;;;4971369;28;20414;-69
2022/09/23 09:39:37;;;;;;;6.50;3.63;;;;;;;;;;4952440;28;20486;-69
2022/09/23 09:42:03;;;;;;;7.75;3.30;;;;;;;;;;4968672;28;20460;-68
2022/09/23 09:44:43;;;;;;;5.07;3.30;;;;;;;;;;4969973;28;20515;-68
2022/09/23 09:47:27;;;;;;;5.05;3.05;;;;;;;;;;4952676;28;20115;-68
2022/09/23 09:50:03;;;;;;;7.60;3.85;;;;;;;;;;4952482;28;20392;-69
2022/09/23 09:52:28;;;;;;;5.43;3.30;;;;;;;;;;4951877;28;20480;-69
2022/09/23 09:55:13;;;;;;;6.40;3.53;;;;;;;;;;4943744;28;21147;-69
2022/09/23 09:57:54;;;;;;;5.05;3.35;;;;;;;;;;4933295;28;20056;-69
2022/09/23 10:00:24;;;;;;;5.35;3.05;;;;;;;;;;4932504;28;20448;-69
2022/09/23 10:03:20;;;;;;;4.85;2.97;;;;;;;;;;4949973;28;20030;-69
2022/09/23 10:05:45;;;;;;;6.63;3.30;;;;;;;;;;4951123;28;20439;-69
2022/09/23 10:08:23;;;;;;;4.78;3.40;;;;;;;;;;4950114;28;20437;-69
2022/09/23 10:10:58;;;;;;;4.82;3.13;;;;;;;;;;4932912;28;20381;-69
2022/09/23 10:13:26;;;;;;;3.78;2.70;;;;;;;;;;4950000;28;20464;-69
2022/09/23 10:15:53;;;;;;;4.78;3.42;;;;;;;;;;4950054;28;20141;-69
2022/09/23 10:18:28;;;;;;;5.18;2.83;;;;;;;;;;4932373;28;20475;-68
2022/09/23 10:21:13;;;;;;;4.03;2.90;;;;;;;;;;4950100;28;20022;-69
2022/09/23 10:23:44;;;;;;;5.05;3.20;;;;;;;;;;4932151;28;20030;-69
2022/09/23 10:26:11;;;;;;;5.05;3.00;;;;;;;;;;4949561;28;20030;-68
2022/09/23 10:28:54;;;;;;;5.63;3.25;;;;;;;;;;4931262;28;20034;-69
2022/09/23 10:31:25;;;;;;;5.10;3.13;;;;;;;;;;4931706;28;20318;-68
2022/09/23 10:33:58;;;;;;;5.22;2.90;;;;;;;;;;4950078;28;20391;-68
2022/09/23 10:36:24;;;;;;;4.38;2.60;;;;;;;;;;4932035;28;20340;-68
2022/09/23 10:48:01;;;;;;;5.07;2.78;;;;;;;;;;4935323;28;20361;-68
2022/09/23 10:50:32;;;;;;;4.50;2.53;;;;;;;;;;4931547;28;20029;-68
2022/09/23 10:53:16;;;;;;;5.97;2.60;;;;;;;;;;4949228;28;20472;-69
2022/09/23 10:55:58;;;;;;;4.97;2.47;;;;;;;;;;4962660;28;20456;-69
2022/09/23 10:58:59;;;;;;;4.43;2.80;;;;;;;;;;4968542;28;20506;-69
2022/09/23 11:01:46;;;;;;;4.97;2.90;;;;;;;;;;4969334;28;20463;-69
2022/09/23 11:04:44;;;;;;;3.92;2.67;;;;;;;;;;4966753;28;20467;-69
2022/09/23 11:07:24;;;;;;;4.18;2.45;;;;;;;;;;4950915;28;20432;-69
2022/09/23 11:09:49;;;;;;;3.58;2.30;;;;;;;;;;4950648;28;20029;-68
2022/09/23 11:12:43;;;;;;;5.20;2.15;;;;;;;;;;4968730;28;20441;-68
2022/09/23 11:15:27;;;;;;;5.10;2.50;;;;;;;;;;4966927;28;20348;-68
2022/09/23 11:18:05;;;;;;;2.38;1.83;;;;;;;;;;4968303;28;20037;-68
2022/09/23 11:21:01;;;;;;;3.50;1.92;;;;;;;;;;4950427;28;20464;-68
2022/09/23 11:23:46;;;;;;;4.22;2.03;;;;;;;;;;4967881;28;20061;-68
2022/09/23 11:26:40;;;;;;;3.33;1.90;;;;;;;;;;4950384;28;20441;-68
2022/09/23 11:29:28;;;;;;;2.88;1.98;;;;;;;;;;4968652;28;20451;-68
2022/09/23 11:32:15;;;;;;;3.57;2.20;;;;;;;;;;4951163;28;20363;-68
2022/09/23 11:35:02;;;;;;;3.72;2.13;;;;;;;;;;4950489;28;20317;-68
2022/09/23 11:37:44;;;;;;;3.35;2.10;;;;;;;;;;4967947;28;20448;-68
2022/09/23 11:40:42;;;;;;;3.38;1.90;;;;;;;;;;4950546;28;20456;-68
2022/09/23 11:43:17;;;;;;;4.47;2.10;;;;;;;;;;4966623;28;20407;-68
2022/09/23 11:45:54;;;;;;;2.83;2.10;;;;;;;;;;4933777;28;20345;-68
2022/09/23 11:48:33;;;;;;;4.53;2.15;;;;;;;;;;4950347;28;20527;-69
2022/09/23 11:51:20;;;;;;;2.47;1.90;;;;;;;;;;4950142;28;20463;-68
2022/09/23 11:54:01;;;;;;;4.88;2.17;;;;;;;;;;4968265;28;20490;-68
2022/09/23 11:56:31;;;;;;;2.78;1.67;;;;;;;;;;4948228;28;20058;-68
2022/09/23 11:59:02;;;;;;;2.58;1.73;;;;;;;;;;4946803;28;20030;-69
2022/09/23 12:01:34;;;;;;;3.15;1.67;;;;;;;;;;4930917;28;20314;-66
2022/09/23 12:04:18;;;;;;;2.65;1.60;;;;;;;;;;4930794;28;20038;-68
2022/09/23 12:06:49;;;;;;;4.32;1.83;;;;;;;;;;4948580;28;20348;-69
2022/09/23 12:09:21;;;;;;;2.78;1.50;;;;;;;;;;4948195;28;20507;-68
2022/09/23 12:12:00;;;;;;;2.95;1.67;;;;;;;;;;4946831;28;20475;-68
2022/09/23 12:14:55;;;;;;;2.47;1.55;;;;;;;;;;4947424;28;20357;-69
2022/09/23 12:17:33;;;;;;;2.22;1.42;;;;;;;;;;4930438;28;20305;-68
2022/09/23 12:20:12;;;;;;;2.25;1.48;;;;;;;;;;4949105;28;20369;-69
2022/09/23 12:22:38;;;;;;;2.17;1.58;;;;;;;;;;4948102;28;20030;-68
2022/09/23 12:25:25;;;;;;;1.80;1.50;;;;;;;;;;4948241;28;20100;-69
2022/09/23 12:27:54;;;;;;;2.83;1.35;;;;;;;;;;4947084;28;20389;-68
2022/09/23 12:30:27;;;;;;;3.47;1.75;;;;;;;;;;4930699;28;20044;-68
2022/09/23 12:33:06;;;;;;;2.35;1.75;;;;;;;;;;4947011;28;20097;-68
2022/09/23 12:35:36;;;;;;;1.73;1.38;;;;;;;;;;4947969;28;20396;-68
2022/09/23 12:38:11;;;;;;;2.00;1.30;;;;;;;;;;4948016;28;20449;-68
2022/09/23 12:40:42;;;;;;;2.47;1.40;;;;;;;;;;4930383;28;20423;-68
2022/09/23 12:43:19;;;;;;;1.85;1.40;;;;;;;;;;4931503;28;20376;-68
2022/09/23 12:45:44;;;;;;;1.92;1.35;;;;;;;;;;4946554;28;20407;-68
2022/09/23 12:48:16;;;;;;;2.35;1.40;;;;;;;;;;4947858;28;20021;-68
2022/09/23 12:50:53;;;;;;;3.08;1.60;;;;;;;;;;4948865;28;20524;-68
2022/09/23 12:53:33;;;;;;;2.03;1.33;;;;;;;;;;4933599;28;20087;-68
2022/09/23 12:56:31;;;;;;;2.45;1.17;;;;;;;;;;4967187;28;20467;-68
2022/09/23 12:59:09;;;;;;;2.40;1.38;;;;;;;;;;4948234;28;20081;-68
2022/09/23 13:01:35;;;;;;;2.43;1.37;;;;;;;;;;4970901;28;20509;-68
2022/09/23 13:07:04;;;;;;;2.10;1.45;;;;;;;;;;4955680;28;20060;-68
2022/09/23 13:09:32;;;;;;;1.92;1.50;;;;;;;;;;4954028;28;20395;-68
2022/09/23 13:12:00;;;;;;;2.53;1.63;;;;;;;;;;4952981;28;20448;-68
2022/09/23 13:14:26;;;;;;;1.90;1.40;;;;;;;;;;4953223;28;20342;-68
2022/09/23 13:16:52;;;;;;;1.65;1.20;;;;;;;;;;4953416;28;20419;-68
2022/09/23 13:19:26;;;;;;;2.38;1.35;;;;;;;;;;4971901;28;20391;-68
2022/09/23 13:22:11;;;;;;;2.63;1.35;;;;;;;;;;4970605;28;20348;-68
2022/09/23 13:24:44;;;;;;;1.52;1.10;;;;;;;;;;4952506;28;20506;-68
2022/09/23 13:27:26;;;;;;;3.03;1.20;;;;;;;;;;4952501;28;20507;-68
2022/09/23 13:29:59;;;;;;;1.27;0.95;;;;;;;;;;4970440;28;20348;-67
2022/09/23 13:32:30;;;;;;;2.30;1.20;;;;;;;;;;4970142;28;20033;-67
2022/09/23 13:35:14;;;;;;;1.65;1.13;;;;;;;;;;4952507;28;20340;-68
2022/09/23 13:37:47;;;;;;;4.45;1.52;;;;;;;;;;4970505;28;20432;-68
2022/09/23 13:40:17;;;;;;;2.00;1.20;;;;;;;;;;4970228;28;20345;-68
2022/09/23 13:42:43;;;;;;;1.73;1.30;;;;;;;;;;4970037;28;20380;-68
2022/09/23 13:45:18;;;;;;;2.80;1.38;;;;;;;;;;4951944;28;20061;-68
2022/09/23 13:47:44;;;;;;;2.00;1.33;;;;;;;;;;4951971;28;20322;-68
2022/09/23 13:50:18;;;;;;;1.83;1.23;;;;;;;;;;4952116;28;20578;-68
2022/09/23 13:52:45;;;;;;;2.95;1.55;;;;;;;;;;4970608;28;20462;-68
2022/09/23 13:55:30;;;;;;;1.88;1.23;;;;;;;;;;4951913;28;20045;-68
2022/09/23 13:57:57;;;;;;;1.67;1.08;;;;;;;;;;4969541;28;20076;-68
2022/09/23 14:00:24;;;;;;;2.67;1.35;;;;;;;;;;4952885;28;20447;-68
2022/09/23 14:02:49;;;;;;;1.58;1.20;;;;;;;;;;4968093;28;20349;-68
2022/09/23 14:05:23;;;;;;;1.83;1.20;;;;;;;;;;4951771;28;20344;-68
2022/09/23 14:07:50;;;;;;;1.98;1.30;;;;;;;;;;4969836;28;20592;-68
2022/09/23 14:10:21;;;;;;;2.53;1.33;;;;;;;;;;4952054;28;20450;-68
2022/09/23 14:12:48;;;;;;;2.08;1.27;;;;;;;;;;4953190;28;20424;-68
2022/09/23 14:15:14;;;;;;;2.20;1.20;;;;;;;;;;4936117;28;20352;-68
2022/09/23 14:17:44;;;;;;;3.97;1.13;;;;;;;;;;4953000;28;20451;-68
2022/09/23 14:20:16;;;;;;;2.30;1.17;;;;;;;;;;4952199;28;20045;-68
2022/09/23 14:22:41;;;;;;;3.28;1.30;;;;;;;;;;4937703;28;20325;-68
2022/09/23 14:25:14;;;;;;;1.65;1.27;;;;;;;;;;4970338;28;20322;-68
2022/09/23 14:27:41;;;;;;;2.08;1.20;;;;;;;;;;4951888;28;20597;-68
2022/09/23 14:30:19;;;;;;;4.47;1.20;;;;;;;;;;4952102;28;20428;-68
2022/09/23 14:32:46;;;;;;;2.72;1.33;;;;;;;;;;4952232;28;20110;-68
2022/09/23 14:35:15;;;;;;;1.50;1.02;;;;;;;;;;4951698;28;20387;-67
2022/09/23 14:40:33;;;;;;;1.30;1.10;;;;;;;;;;4970677;28;20364;-68
2022/09/23 14:43:02;;;;;;;1.83;1.05;;;;;;;;;;4951402;28;20459;-68
2022/09/23 14:45:38;;;;;;;2.97;1.25;;;;;;;;;;4951628;28;20325;-68
2022/09/23 14:48:07;;;;;;;2.15;1.40;;;;;;;;;;4969512;28;20395;-68
2022/09/23 14:50:38;;;;;;;1.33;1.02;;;;;;;;;;4952644;28;20424;-68
2022/09/23 14:53:23;;;;;;;2.95;1.35;;;;;;;;;;4953072;28;20033;-68
2022/09/23 14:55:53;;;;;;;1.48;1.17;;;;;;;;;;4969080;28;20449;-68
2022/09/23 14:58:20;;;;;;;2.47;1.33;;;;;;;;;;4969018;28;20038;-68
2022/09/23 15:00:53;;;;;;;1.98;1.13;;;;;;;;;;4952307;28;20455;-68
2022/09/23 15:03:20;;;;;;;1.75;1.20;;;;;;;;;;4969981;28;20447;-68
2022/09/23 15:05:47;;;;;;;2.40;1.13;;;;;;;;;;4951703;28;20348;-68
2022/09/23 15:08:18;;;;;;;2.22;1.00;;;;;;;;;;4951925;28;20352;-68
2022/09/23 15:10:44;;;;;;;1.25;0.98;;;;;;;;;;4951700;28;20432;-68
2022/09/23 15:13:29;;;;;;;1.23;1.00;;;;;;;;;;4951631;28;20030;-68
2022/09/23 15:15:55;;;;;;;1.17;0.85;;;;;;;;;;4952193;28;20030;-68
2022/09/23 15:18:27;;;;;;;4.63;1.77;;;;;;;;;;4967742;28;20052;-68